createdAt,value
2023-03-27T00:01:13.140Z,7.40
2023-03-27T00:03:40.798Z,7.40
2023-03-27T00:06:09.701Z,7.40
2023-03-27T00:08:36.722Z,7.40
2023-03-27T00:11:04.694Z,7.40
2023-03-27T00:13:32.038Z,7.30
2023-03-27T00:16:00.275Z,7.30
2023-03-27T00:18:28.259Z,7.30
2023-03-27T00:20:58.605Z,7.20
2023-03-27T00:23:26.118Z,7.30
2023-03-27T00:25:55.938Z,7.20
2023-03-27T00:28:23.047Z,7.20
2023-03-27T00:30:50.031Z,7.20
2023-03-27T00:33:18.252Z,7.10
2023-03-27T00:35:46.752Z,7.20
2023-03-27T00:38:15.057Z,7.20
2023-03-27T00:40:44.212Z,7.20
2023-03-27T00:43:26.167Z,7.20
2023-03-27T00:45:56.786Z,7.20
2023-03-27T00:48:26.020Z,7.20
2023-03-27T00:50:53.862Z,7.20
2023-03-27T00:53:24.401Z,7.20
2023-03-27T00:55:53.392Z,7.10
2023-03-27T00:58:25.894Z,7.10
2023-03-27T01:00:54.705Z,7.00
2023-03-27T01:03:26.177Z,7.00
2023-03-27T01:05:54.164Z,6.90
2023-03-27T01:08:21.851Z,6.80
2023-03-27T01:10:59.071Z,6.80
2023-03-27T01:13:45.907Z,6.70
2023-03-27T01:16:19.260Z,6.60
2023-03-27T01:18:59.697Z,6.60
2023-03-27T01:21:51.764Z,6.50
2023-03-27T01:24:45.544Z,6.50
2023-03-27T01:27:19.215Z,6.50
2023-03-27T01:30:02.711Z,6.40
2023-03-27T01:33:08.462Z,6.40
2023-03-27T01:36:00.427Z,6.30
2023-03-27T01:39:06.418Z,6.20
2023-03-27T01:41:39.847Z,6.20
2023-03-27T01:44:14.820Z,6.10
2023-03-27T01:46:46.683Z,6.10
2023-03-27T01:49:15.417Z,6.10
2023-03-27T01:51:46.235Z,6.20
2023-03-27T01:54:19.181Z,6.20
2023-03-27T01:56:53.631Z,6.20
2023-03-27T01:59:24.593Z,6.20
2023-03-27T02:01:56.085Z,6.20
2023-03-27T02:04:28.809Z,6.20
2023-03-27T02:07:00.584Z,6.20
2023-03-27T02:09:33.634Z,6.10
2023-03-27T02:12:07.475Z,6.10
2023-03-27T02:14:39.410Z,6.10
2023-03-27T02:17:10.288Z,6.10
2023-03-27T02:19:40.911Z,6.10
2023-03-27T02:22:08.041Z,6.10
2023-03-27T02:24:34.833Z,6.10
2023-03-27T02:27:12.804Z,6.10
2023-03-27T02:29:51.694Z,6.10
2023-03-27T02:32:28.653Z,6.10
2023-03-27T02:35:03.361Z,6.00
2023-03-27T02:37:41.991Z,6.00
2023-03-27T02:40:15.654Z,5.90
2023-03-27T02:42:56.528Z,5.90
2023-03-27T02:45:29.106Z,5.90
2023-03-27T02:47:59.511Z,5.80
2023-03-27T02:50:32.036Z,5.80
2023-03-27T02:53:01.833Z,5.80
2023-03-27T02:55:33.196Z,5.70
2023-03-27T02:58:07.423Z,5.70
2023-03-27T03:00:39.746Z,5.60
2023-03-27T03:03:10.962Z,5.60
2023-03-27T03:05:38.145Z,5.60
2023-03-27T03:08:05.753Z,5.50
2023-03-27T03:10:33.308Z,5.50
2023-03-27T03:13:00.152Z,5.50
2023-03-27T03:15:28.556Z,5.40
2023-03-27T03:17:55.581Z,5.40
2023-03-27T03:20:23.911Z,5.30
2023-03-27T03:22:50.801Z,5.30
2023-03-27T03:25:17.901Z,5.30
2023-03-27T03:27:45.803Z,5.30
2023-03-27T03:30:17.036Z,5.30
2023-03-27T03:32:47.496Z,5.20
2023-03-27T03:35:14.640Z,5.20
2023-03-27T03:37:41.507Z,5.20
2023-03-27T03:40:12.115Z,5.10
2023-03-27T03:42:44.802Z,5.10
2023-03-27T03:45:11.819Z,5.00
2023-03-27T03:47:38.858Z,5.00
2023-03-27T03:50:08.078Z,5.00
2023-03-27T03:52:34.993Z,5.10
2023-03-27T03:55:03.993Z,5.00
2023-03-27T03:57:31.257Z,5.10
2023-03-27T03:59:58.457Z,5.00
2023-03-27T04:02:31.312Z,5.00
2023-03-27T04:04:59.266Z,5.00
2023-03-27T04:07:35.561Z,5.00
2023-03-27T04:10:02.837Z,5.10
2023-03-27T04:12:29.827Z,5.10
2023-03-27T04:14:56.994Z,5.10
2023-03-27T04:17:26.639Z,5.10
2023-03-27T04:19:57.384Z,5.10
2023-03-27T04:22:26.168Z,5.10
2023-03-27T04:24:54.422Z,5.10
2023-03-27T04:27:21.365Z,5.10
2023-03-27T04:29:48.363Z,5.10
2023-03-27T04:32:18.992Z,5.10
2023-03-27T04:34:46.689Z,5.10
2023-03-27T04:37:14.505Z,5.00
2023-03-27T04:39:46.206Z,5.00
2023-03-27T04:42:15.086Z,5.00
2023-03-27T04:44:42.406Z,5.00
2023-03-27T04:47:09.382Z,5.00
2023-03-27T04:49:40.662Z,5.00
2023-03-27T04:52:08.191Z,5.00
2023-03-27T04:54:35.408Z,5.00
2023-03-27T04:57:03.539Z,5.00
2023-03-27T04:59:31.991Z,5.00
2023-03-27T05:01:59.523Z,5.00
2023-03-27T05:04:26.398Z,5.00
2023-03-27T05:06:53.498Z,5.00
2023-03-27T05:09:20.559Z,5.00
2023-03-27T05:11:49.896Z,5.00
2023-03-27T05:14:17.003Z,5.00
2023-03-27T05:16:45.839Z,5.00
2023-03-27T05:19:13.204Z,5.00
2023-03-27T05:21:40.043Z,5.10
2023-03-27T05:24:07.963Z,5.10
2023-03-27T05:26:36.414Z,5.10
2023-03-27T05:29:05.875Z,5.10
2023-03-27T05:31:33.710Z,5.20
2023-03-27T05:34:02.574Z,5.20
2023-03-27T05:36:29.872Z,5.20
2023-03-27T05:38:57.867Z,5.20
2023-03-27T05:41:25.041Z,5.20
2023-03-27T05:43:51.907Z,5.20
2023-03-27T05:46:20.769Z,5.20
2023-03-27T05:48:48.724Z,5.20
2023-03-27T05:51:17.487Z,5.20
2023-03-27T05:53:44.341Z,5.20
2023-03-27T05:56:11.387Z,5.20
2023-03-27T05:58:38.744Z,5.20
2023-03-27T06:01:05.868Z,5.20
2023-03-27T06:03:37.269Z,5.10
2023-03-27T06:06:08.488Z,5.20
2023-03-27T06:08:37.399Z,5.20
2023-03-27T06:11:09.709Z,5.40
2023-03-27T06:13:36.819Z,5.50
2023-03-27T06:16:05.696Z,5.60
2023-03-27T06:18:33.512Z,5.60
2023-03-27T06:21:01.030Z,5.60
2023-03-27T06:23:27.997Z,5.70
2023-03-27T06:25:56.484Z,5.80
2023-03-27T06:28:23.399Z,5.80
2023-03-27T06:30:50.748Z,5.90
2023-03-27T06:33:17.700Z,6.00
2023-03-27T06:35:53.285Z,6.10
2023-03-27T06:38:21.275Z,6.20
2023-03-27T06:40:48.439Z,6.30
2023-03-27T06:43:19.085Z,6.40
2023-03-27T06:45:49.182Z,6.50
2023-03-27T06:48:21.204Z,6.70
2023-03-27T06:50:50.948Z,6.90
2023-03-27T06:53:27.230Z,7.10
2023-03-27T06:55:55.866Z,7.30
2023-03-27T06:58:26.253Z,7.50
2023-03-27T07:00:53.143Z,8.00
2023-03-27T07:03:21.503Z,8.50
2023-03-27T07:05:49.585Z,9.00
2023-03-27T07:08:24.158Z,9.70
2023-03-27T07:11:03.889Z,10.40
2023-03-27T07:13:41.368Z,11.10
2023-03-27T07:16:09.697Z,11.80
2023-03-27T07:18:36.676Z,12.30
2023-03-27T07:21:03.943Z,12.90
2023-03-27T07:23:30.948Z,13.60
2023-03-27T07:25:58.301Z,14.20
2023-03-27T07:28:25.490Z,14.70
2023-03-27T07:30:53.897Z,15.10
2023-03-27T07:33:22.174Z,15.50
2023-03-27T07:35:49.309Z,16.00
2023-03-27T07:38:17.414Z,16.40
2023-03-27T07:40:46.200Z,16.60
2023-03-27T07:43:13.487Z,16.80
2023-03-27T07:45:42.086Z,17.00
2023-03-27T07:48:14.906Z,17.20
2023-03-27T07:50:42.272Z,17.30
2023-03-27T07:53:09.327Z,17.40
2023-03-27T07:55:41.711Z,17.40
2023-03-27T07:58:08.982Z,17.30
2023-03-27T08:00:36.270Z,17.00
2023-03-27T08:03:07.915Z,16.90
2023-03-27T08:05:37.233Z,16.90
2023-03-27T08:08:05.248Z,17.00
2023-03-27T08:10:32.287Z,17.10
2023-03-27T08:12:59.712Z,17.00
2023-03-27T08:15:27.165Z,16.90
2023-03-27T08:17:56.977Z,16.70
2023-03-27T08:20:25.228Z,16.60
2023-03-27T08:22:53.906Z,16.30
2023-03-27T08:25:24.291Z,15.90
2023-03-27T08:27:51.319Z,15.40
2023-03-27T08:30:20.271Z,15.20
2023-03-27T08:32:48.328Z,15.00
2023-03-27T08:35:17.794Z,15.00
2023-03-27T08:37:44.946Z,15.00
2023-03-27T08:40:22.038Z,14.90
2023-03-27T08:42:52.416Z,15.00
2023-03-27T08:45:24.129Z,15.10
2023-03-27T08:47:56.584Z,15.20
2023-03-27T08:50:32.209Z,15.40
2023-03-27T08:53:00.195Z,15.10
2023-03-27T08:55:38.326Z,14.80
2023-03-27T08:58:05.697Z,14.80
2023-03-27T09:00:39.760Z,14.90
2023-03-27T09:03:13.587Z,15.20
2023-03-27T09:05:45.431Z,15.50
2023-03-27T09:08:22.105Z,15.90
2023-03-27T09:10:52.912Z,16.10
2023-03-27T09:13:25.663Z,16.30
2023-03-27T09:16:00.878Z,16.40
2023-03-27T09:18:33.325Z,16.50
2023-03-27T09:21:05.856Z,16.50
2023-03-27T09:23:38.274Z,16.50
2023-03-27T09:26:10.238Z,16.40
2023-03-27T09:28:46.499Z,16.30
2023-03-27T09:31:25.033Z,16.30
2023-03-27T09:33:52.550Z,16.30
2023-03-27T09:36:19.749Z,16.30
2023-03-27T09:38:50.856Z,16.50
2023-03-27T09:41:23.732Z,16.70
2023-03-27T09:43:58.320Z,16.80
2023-03-27T09:46:27.952Z,16.90
2023-03-27T09:49:00.848Z,17.00
2023-03-27T09:51:39.582Z,16.90
2023-03-27T09:54:07.595Z,17.10
2023-03-27T09:56:40.948Z,17.10
2023-03-27T09:59:21.733Z,17.20
2023-03-27T10:01:49.818Z,17.30
2023-03-27T10:04:20.214Z,17.60
2023-03-27T10:06:49.286Z,17.90
2023-03-27T10:09:24.830Z,18.20
2023-03-27T10:12:00.958Z,18.30
2023-03-27T10:14:29.959Z,17.90
2023-03-27T10:16:57.048Z,17.40
2023-03-27T10:19:27.861Z,17.40
2023-03-27T10:21:56.562Z,17.70
2023-03-27T10:24:32.269Z,17.80
2023-03-27T10:27:01.416Z,17.80
2023-03-27T10:29:32.028Z,17.50
2023-03-27T10:32:00.875Z,17.00
2023-03-27T10:34:32.568Z,16.30
2023-03-27T10:37:01.593Z,15.70
2023-03-27T10:39:33.032Z,15.70
2023-03-27T10:42:07.406Z,16.10
2023-03-27T10:44:37.624Z,16.30
2023-03-27T10:47:06.166Z,16.30
2023-03-27T10:49:41.615Z,16.30
2023-03-27T10:52:18.143Z,16.50
2023-03-27T10:54:47.547Z,16.80
2023-03-27T10:57:19.706Z,16.60
2023-03-27T10:59:51.539Z,16.00
2023-03-27T11:02:23.244Z,15.50
2023-03-27T11:04:54.800Z,15.10
2023-03-27T11:07:28.042Z,14.80
2023-03-27T11:10:01.730Z,14.60
2023-03-27T11:12:33.149Z,14.60
2023-03-27T11:15:04.758Z,14.80
2023-03-27T11:17:38.495Z,15.20
2023-03-27T11:20:16.496Z,15.90
2023-03-27T11:22:47.909Z,16.50
2023-03-27T11:25:21.059Z,17.10
2023-03-27T11:27:58.348Z,17.90
2023-03-27T11:30:33.693Z,18.60
2023-03-27T11:33:15.215Z,19.00
2023-03-27T11:35:50.198Z,18.70
2023-03-27T11:38:20.637Z,17.80
2023-03-27T11:40:49.589Z,17.10
2023-03-27T11:43:19.947Z,16.80
2023-03-27T11:45:55.975Z,16.40
2023-03-27T11:48:48.334Z,16.00
2023-03-27T11:51:24.270Z,15.60
2023-03-27T11:54:01.775Z,14.90
2023-03-27T11:56:43.695Z,14.10
2023-03-27T11:59:42.588Z,12.90
2023-03-27T12:02:41.464Z,11.70
2023-03-27T12:05:19.112Z,10.60
2023-03-27T12:07:58.124Z,9.90
2023-03-27T12:10:29.507Z,9.50
2023-03-27T12:13:28.851Z,9.40
2023-03-27T12:16:15.018Z,9.60
2023-03-27T12:19:02.000Z,10.40
2023-03-27T12:21:50.170Z,11.30
2023-03-27T12:24:32.931Z,12.40
2023-03-27T12:27:45.100Z,13.20
2023-03-27T12:30:26.495Z,14.10
2023-03-27T12:33:25.544Z,14.80
2023-03-27T12:35:57.867Z,15.30
2023-03-27T12:38:29.429Z,15.80
2023-03-27T12:41:18.888Z,15.80
2023-03-27T12:43:47.499Z,15.70
2023-03-27T12:46:19.837Z,15.50
2023-03-27T12:49:00.350Z,15.40
2023-03-27T12:51:43.286Z,15.30
2023-03-27T12:54:27.770Z,15.30
2023-03-27T12:57:05.909Z,15.20
2023-03-27T12:59:36.878Z,15.10
2023-03-27T13:02:49.903Z,15.00
2023-03-27T13:05:55.690Z,14.80
2023-03-27T13:08:37.833Z,14.50
2023-03-27T13:11:19.278Z,14.10
2023-03-27T13:14:21.456Z,14.00
2023-03-27T13:17:09.615Z,14.00
2023-03-27T13:19:52.483Z,13.60
2023-03-27T13:22:37.278Z,13.20
2023-03-27T13:25:35.301Z,12.70
2023-03-27T13:28:29.711Z,12.20
2023-03-27T13:30:58.054Z,11.80
2023-03-27T13:33:28.020Z,11.60
2023-03-27T13:36:11.625Z,11.40
2023-03-27T13:39:18.273Z,11.30
2023-03-27T13:42:06.095Z,11.20
2023-03-27T13:44:43.005Z,11.20
2023-03-27T13:47:40.408Z,11.30
2023-03-27T13:50:24.787Z,11.40
2023-03-27T13:53:09.381Z,11.40
2023-03-27T13:56:02.447Z,11.40
2023-03-27T13:58:45.999Z,11.40
2023-03-27T14:01:28.133Z,11.40
2023-03-27T14:04:10.245Z,11.40
2023-03-27T14:07:12.980Z,11.40
2023-03-27T14:09:56.307Z,11.30
2023-03-27T14:12:38.179Z,11.40
2023-03-27T14:15:21.855Z,11.60
2023-03-27T14:18:19.861Z,11.80
2023-03-27T14:20:51.508Z,12.20
2023-03-27T14:23:23.412Z,12.50
2023-03-27T14:26:00.373Z,12.60
2023-03-27T14:28:34.547Z,12.70
2023-03-27T14:31:06.100Z,12.80
2023-03-27T14:33:34.450Z,12.80
2023-03-27T14:36:04.003Z,12.70
2023-03-27T14:38:33.392Z,12.60
2023-03-27T14:41:01.964Z,12.60
2023-03-27T14:43:31.749Z,12.60
2023-03-27T14:46:02.363Z,12.40
2023-03-27T14:48:33.000Z,12.30
2023-03-27T14:51:03.212Z,12.00
2023-03-27T14:53:36.620Z,11.90
2023-03-27T14:56:12.890Z,11.80
2023-03-27T14:58:46.524Z,11.70
2023-03-27T15:01:17.326Z,11.40
2023-03-27T15:03:45.931Z,11.10
2023-03-27T15:06:14.796Z,10.70
2023-03-27T15:08:46.523Z,10.30
2023-03-27T15:11:16.816Z,9.90
2023-03-27T15:13:48.008Z,9.70
2023-03-27T15:16:19.414Z,9.50
2023-03-27T15:18:56.515Z,9.40
2023-03-27T15:21:34.822Z,9.40
2023-03-27T15:24:05.973Z,9.30
2023-03-27T15:26:35.128Z,9.30
2023-03-27T15:29:08.925Z,9.20
2023-03-27T15:31:37.133Z,9.30
2023-03-27T15:34:09.068Z,9.40
2023-03-27T15:36:38.418Z,9.50
2023-03-27T15:39:07.263Z,9.70
2023-03-27T15:41:42.524Z,9.90
2023-03-27T15:44:16.239Z,10.10
2023-03-27T15:46:54.076Z,10.30
2023-03-27T15:49:30.851Z,10.40
2023-03-27T15:51:59.534Z,10.50
2023-03-27T15:54:32.308Z,10.50
2023-03-27T15:57:09.145Z,10.60
2023-03-27T15:59:52.121Z,10.70
2023-03-27T16:02:23.796Z,10.60
2023-03-27T16:04:56.057Z,10.60
2023-03-27T16:07:25.576Z,10.60
2023-03-27T16:09:55.465Z,10.60
2023-03-27T16:12:28.223Z,10.50
2023-03-27T16:14:57.574Z,10.40
2023-03-27T16:17:32.383Z,10.30
2023-03-27T16:20:01.533Z,10.30
2023-03-27T16:22:31.213Z,10.20
2023-03-27T16:24:59.710Z,10.20
2023-03-27T16:27:31.552Z,10.00
2023-03-27T16:29:59.784Z,10.00
2023-03-27T16:32:26.681Z,9.90
2023-03-27T16:34:53.561Z,9.90
2023-03-27T16:37:23.204Z,9.80
2023-03-27T16:39:50.310Z,9.80
2023-03-27T16:42:19.619Z,9.80
2023-03-27T16:44:46.702Z,9.80
2023-03-27T16:47:16.527Z,9.80
2023-03-27T16:49:43.982Z,9.80
2023-03-27T16:52:11.059Z,9.70
2023-03-27T16:54:38.013Z,9.70
2023-03-27T16:57:04.952Z,9.70
2023-03-27T16:59:31.948Z,9.70
2023-03-27T17:01:59.043Z,9.70
2023-03-27T17:04:28.272Z,9.60
2023-03-27T17:06:55.654Z,9.60
2023-03-27T17:09:22.933Z,9.60
2023-03-27T17:11:50.166Z,9.50
2023-03-27T17:14:17.141Z,9.50
2023-03-27T17:16:44.538Z,9.50
2023-03-27T17:19:11.472Z,9.40
2023-03-27T17:21:39.738Z,9.40
2023-03-27T17:24:06.995Z,9.30
2023-03-27T17:26:35.525Z,9.30
2023-03-27T17:29:05.177Z,9.30
2023-03-27T17:31:32.738Z,9.30
2023-03-27T17:33:59.844Z,9.10
2023-03-27T17:36:39.118Z,9.00
2023-03-27T17:39:10.299Z,8.90
2023-03-27T17:41:37.222Z,8.90
2023-03-27T17:44:05.643Z,8.80
2023-03-27T17:46:34.289Z,8.70
2023-03-27T17:49:01.347Z,8.60
2023-03-27T17:51:28.214Z,8.40
2023-03-27T17:53:55.460Z,8.30
2023-03-27T17:56:23.912Z,8.20
2023-03-27T17:58:50.885Z,7.80
2023-03-27T18:01:19.829Z,7.90
2023-03-27T18:03:47.384Z,7.80
2023-03-27T18:06:14.905Z,7.70
2023-03-27T18:08:42.033Z,7.70
2023-03-27T18:11:09.580Z,7.60
2023-03-27T18:13:38.173Z,7.60
2023-03-27T18:16:08.558Z,7.60
2023-03-27T18:18:36.297Z,7.50
2023-03-27T18:21:03.722Z,7.50
2023-03-27T18:23:31.366Z,7.50
2023-03-27T18:25:58.510Z,7.40
2023-03-27T18:28:25.726Z,7.40
2023-03-27T18:31:00.767Z,7.40
2023-03-27T18:33:27.968Z,7.30
2023-03-27T18:35:56.169Z,7.30
2023-03-27T18:38:24.056Z,7.20
2023-03-27T18:40:51.365Z,7.20
2023-03-27T18:43:18.248Z,7.10
2023-03-27T18:45:45.286Z,7.00
2023-03-27T18:48:13.567Z,7.00
2023-03-27T18:50:40.476Z,6.90
2023-03-27T18:53:07.449Z,6.80
2023-03-27T18:55:34.343Z,6.70
2023-03-27T18:58:01.384Z,6.70
2023-03-27T19:00:28.697Z,6.60
2023-03-27T19:02:55.673Z,6.50
2023-03-27T19:05:23.914Z,6.50
2023-03-27T19:07:51.245Z,6.50
2023-03-27T19:10:18.195Z,6.50
2023-03-27T19:12:45.177Z,6.60
2023-03-27T19:17:46.171Z,6.50
2023-03-27T19:20:13.754Z,6.50
2023-03-27T19:22:42.001Z,6.50
2023-03-27T19:25:09.771Z,6.50
2023-03-27T19:27:39.187Z,6.50
2023-03-27T19:30:08.502Z,6.50
2023-03-27T19:32:35.597Z,6.50
2023-03-27T19:35:03.031Z,6.60
2023-03-27T19:37:29.976Z,6.60
2023-03-27T19:40:01.002Z,6.60
2023-03-27T19:42:28.967Z,6.70
2023-03-27T19:44:56.756Z,6.70
2023-03-27T19:47:23.706Z,6.70
2023-03-27T19:49:50.839Z,6.70
2023-03-27T19:52:19.729Z,6.60
2023-03-27T19:54:46.725Z,6.60
2023-03-27T19:57:15.494Z,6.50
2023-03-27T19:59:42.411Z,6.50
2023-03-27T20:02:11.149Z,6.50
2023-03-27T20:04:38.184Z,6.50
2023-03-27T20:07:07.073Z,6.50
2023-03-27T20:09:34.152Z,6.40
2023-03-27T20:12:01.354Z,6.40
2023-03-27T20:14:29.818Z,6.40
2023-03-27T20:16:56.860Z,6.40
2023-03-27T20:19:30.482Z,6.40
2023-03-27T20:21:57.664Z,6.40
2023-03-27T20:24:24.959Z,6.40
2023-03-27T20:26:53.997Z,6.40
2023-03-27T20:29:23.053Z,6.40
2023-03-27T20:31:51.565Z,6.40
2023-03-27T20:34:19.837Z,6.30
2023-03-27T20:36:47.605Z,6.30
2023-03-27T20:39:14.855Z,6.30
2023-03-27T20:41:41.977Z,6.30
2023-03-27T20:44:16.360Z,6.30
2023-03-27T20:46:47.475Z,6.30
2023-03-27T20:51:57.201Z,6.30
2023-03-27T20:54:24.210Z,6.30
2023-03-27T20:56:51.363Z,6.30
2023-03-27T20:59:18.497Z,6.30
2023-03-27T21:01:46.399Z,6.30
2023-03-27T21:04:14.611Z,6.50
2023-03-27T21:06:43.583Z,6.40
2023-03-27T21:09:13.833Z,6.40
2023-03-27T21:11:41.087Z,6.40
2023-03-27T21:14:08.277Z,6.40
2023-03-27T21:16:35.316Z,6.30
2023-03-27T21:19:02.316Z,6.30
2023-03-27T21:21:29.258Z,6.20
2023-03-27T21:23:57.592Z,6.30
2023-03-27T21:26:24.562Z,6.20
2023-03-27T21:28:52.808Z,6.20
2023-03-27T21:31:20.346Z,6.20
2023-03-27T21:33:47.708Z,6.10
2023-03-27T21:36:14.912Z,6.10
2023-03-27T21:38:41.930Z,6.10
2023-03-27T21:41:11.568Z,6.00
2023-03-27T21:43:38.515Z,6.00
2023-03-27T21:46:06.276Z,6.00
2023-03-27T21:48:33.226Z,6.10
2023-03-27T21:51:01.004Z,6.10
2023-03-27T21:53:28.655Z,6.10
2023-03-27T21:55:56.597Z,6.10
2023-03-27T21:58:25.443Z,6.10
2023-03-27T22:00:54.910Z,6.00
2023-03-27T22:03:21.735Z,6.00
2023-03-27T22:06:07.682Z,6.00
2023-03-27T22:08:37.178Z,6.00
2023-03-27T22:11:04.591Z,6.00
2023-03-27T22:13:34.543Z,6.00
2023-03-27T22:16:01.961Z,5.90
2023-03-27T22:18:31.370Z,6.00
2023-03-27T22:20:58.217Z,5.90
2023-03-27T22:23:25.283Z,5.90
2023-03-27T22:25:53.791Z,5.90
2023-03-27T22:28:20.635Z,5.90
2023-03-27T22:30:50.798Z,5.90
2023-03-27T22:33:24.135Z,5.90
2023-03-27T22:35:51.505Z,5.90
2023-03-27T22:38:18.439Z,5.80
2023-03-27T22:40:45.494Z,5.80
2023-03-27T22:43:22.383Z,5.80
2023-03-27T22:45:52.619Z,5.80
2023-03-27T22:48:19.494Z,5.50
2023-03-27T22:50:53.435Z,5.80
2023-03-27T22:53:20.504Z,5.70
2023-03-27T22:55:48.419Z,5.60
2023-03-27T22:58:15.515Z,5.60
2023-03-27T23:00:45.300Z,5.60
2023-03-27T23:03:13.739Z,5.60
2023-03-27T23:05:41.171Z,5.60
2023-03-27T23:08:08.490Z,5.60
2023-03-27T23:10:35.733Z,5.60
2023-03-27T23:13:03.101Z,5.60
2023-03-27T23:15:30.792Z,5.60
2023-03-27T23:17:57.841Z,5.60
2023-03-27T23:20:26.634Z,5.60
2023-03-27T23:22:53.583Z,5.60
2023-03-27T23:25:20.482Z,5.60
2023-03-27T23:27:47.577Z,5.60
2023-03-27T23:30:14.699Z,5.50
2023-03-27T23:32:41.611Z,5.50
2023-03-27T23:35:11.312Z,5.50
2023-03-27T23:37:39.505Z,5.50
2023-03-27T23:40:08.122Z,5.40
2023-03-27T23:42:35.078Z,5.30
2023-03-27T23:45:01.929Z,5.40
2023-03-27T23:47:28.848Z,5.40
2023-03-27T23:49:55.727Z,5.40
2023-03-27T23:52:22.562Z,5.40
2023-03-27T23:54:50.740Z,5.50
2023-03-27T23:57:17.738Z,5.50
2023-03-27T23:59:44.761Z,5.50
